sensor_id;sensor_type;location;lat;lon;timestamp;temperature;humidity
53653;DHT22;39553;52.954;5.932;2023-03-14T00:01:15;9.90;99.90
53653;DHT22;39553;52.954;5.932;2023-03-14T00:03:41;10.00;99.90
53653;DHT22;39553;52.954;5.932;2023-03-14T00:06:08;10.00;99.90
53653;DHT22;39553;52.954;5.932;2023-03-14T00:08:35;10.00;99.90
53653;DHT22;39553;52.954;5.932;2023-03-14T00:11:08;10.00;99.90
53653;DHT22;39553;52.954;5.932;2023-03-14T00:13:34;10.00;99.90
53653;DHT22;39553;52.954;5.932;2023-03-14T00:16:10;10.00;99.90
53653;DHT22;39553;52.954;5.932;2023-03-14T00:18:36;10.00;99.90
53653;DHT22;39553;52.954;5.932;2023-03-14T00:21:03;9.90;99.90
53653;DHT22;39553;52.954;5.932;2023-03-14T00:23:30;9.90;99.90
53653;DHT22;39553;52.954;5.932;2023-03-14T00:26:11;9.90;99.90
53653;DHT22;39553;52.954;5.932;2023-03-14T00:28:37;9.90;99.90
53653;DHT22;39553;52.954;5.932;2023-03-14T00:31:04;9.90;99.90
53653;DHT22;39553;52.954;5.932;2023-03-14T00:33:31;10.00;99.90
53653;DHT22;39553;52.954;5.932;2023-03-14T00:36:00;10.00;99.90
53653;DHT22;39553;52.954;5.932;2023-03-14T00:38:27;10.00;99.90
53653;DHT22;39553;52.954;5.932;2023-03-14T00:40:53;10.00;99.90
53653;DHT22;39553;52.954;5.932;2023-03-14T00:43:20;10.00;99.90
53653;DHT22;39553;52.954;5.932;2023-03-14T00:45:52;9.90;99.90
53653;DHT22;39553;52.954;5.932;2023-03-14T00:48:19;9.90;99.90
53653;DHT22;39553;52.954;5.932;2023-03-14T00:50:45;9.90;99.90
53653;DHT22;39553;52.954;5.932;2023-03-14T00:53:12;9.80;99.90
53653;DHT22;39553;52.954;5.932;2023-03-14T00:55:39;9.80;99.90
53653;DHT22;39553;52.954;5.932;2023-03-14T00:58:05;9.80;99.90
53653;DHT22;39553;52.954;5.932;2023-03-14T01:00:31;9.80;99.90
53653;DHT22;39553;52.954;5.932;2023-03-14T01:02:57;9.80;99.90
53653;DHT22;39553;52.954;5.932;2023-03-14T01:05:23;9.90;99.90
53653;DHT22;39553;52.954;5.932;2023-03-14T01:07:49;9.80;99.90
53653;DHT22;39553;52.954;5.932;2023-03-14T01:10:16;9.80;99.90
53653;DHT22;39553;52.954;5.932;2023-03-14T01:12:42;9.90;99.90
53653;DHT22;39553;52.954;5.932;2023-03-14T01:15:08;9.90;99.90
53653;DHT22;39553;52.954;5.932;2023-03-14T01:17:34;9.90;99.90
53653;DHT22;39553;52.954;5.932;2023-03-14T01:20:00;9.90;99.90
53653;DHT22;39553;52.954;5.932;2023-03-14T01:22:26;9.90;99.90
53653;DHT22;39553;52.954;5.932;2023-03-14T01:24:52;9.90;99.90
53653;DHT22;39553;52.954;5.932;2023-03-14T01:27:18;9.80;99.90
53653;DHT22;39553;52.954;5.932;2023-03-14T01:29:44;9.80;99.90
53653;DHT22;39553;52.954;5.932;2023-03-14T01:32:09;9.70;99.90
53653;DHT22;39553;52.954;5.932;2023-03-14T01:34:35;9.70;99.90
53653;DHT22;39553;52.954;5.932;2023-03-14T01:37:01;9.60;99.90
53653;DHT22;39553;52.954;5.932;2023-03-14T01:39:26;9.60;99.90
53653;DHT22;39553;52.954;5.932;2023-03-14T01:41:53;9.70;99.90
53653;DHT22;39553;52.954;5.932;2023-03-14T01:44:19;9.60;99.90
53653;DHT22;39553;52.954;5.932;2023-03-14T01:46:45;9.60;99.90
53653;DHT22;39553;52.954;5.932;2023-03-14T01:49:22;9.50;99.90
53653;DHT22;39553;52.954;5.932;2023-03-14T01:51:53;9.40;99.90
53653;DHT22;39553;52.954;5.932;2023-03-14T01:54:37;9.40;99.90
53653;DHT22;39553;52.954;5.932;2023-03-14T01:57:16;9.40;99.90
53653;DHT22;39553;52.954;5.932;2023-03-14T01:59:54;9.40;99.90
53653;DHT22;39553;52.954;5.932;2023-03-14T02:02:22;9.40;99.90
53653;DHT22;39553;52.954;5.932;2023-03-14T02:04:49;9.40;99.90
53653;DHT22;39553;52.954;5.932;2023-03-14T02:07:30;9.40;99.90
53653;DHT22;39553;52.954;5.932;2023-03-14T02:09:58;9.40;99.90
53653;DHT22;39553;52.954;5.932;2023-03-14T02:12:24;9.40;99.90
53653;DHT22;39553;52.954;5.932;2023-03-14T02:14:50;9.40;99.90
53653;DHT22;39553;52.954;5.932;2023-03-14T02:17:18;9.40;99.90
53653;DHT22;39553;52.954;5.932;2023-03-14T02:22:31;9.40;99.90
53653;DHT22;39553;52.954;5.932;2023-03-14T02:25:08;9.40;99.90
53653;DHT22;39553;52.954;5.932;2023-03-14T02:27:34;9.30;99.90
53653;DHT22;39553;52.954;5.932;2023-03-14T02:30:21;9.30;99.90
53653;DHT22;39553;52.954;5.932;2023-03-14T02:32:58;9.30;99.90
53653;DHT22;39553;52.954;5.932;2023-03-14T02:35:28;9.20;99.90
53653;DHT22;39553;52.954;5.932;2023-03-14T02:38:00;9.00;99.90
53653;DHT22;39553;52.954;5.932;2023-03-14T02:40:26;8.90;99.90
53653;DHT22;39553;52.954;5.932;2023-03-14T02:42:52;8.90;99.90
53653;DHT22;39553;52.954;5.932;2023-03-14T02:47:54;8.80;99.90
53653;DHT22;39553;52.954;5.932;2023-03-14T02:50:24;8.80;99.90
53653;DHT22;39553;52.954;5.932;2023-03-14T02:52:52;8.80;99.90
53653;DHT22;39553;52.954;5.932;2023-03-14T02:55:24;8.80;99.90
53653;DHT22;39553;52.954;5.932;2023-03-14T02:57:52;8.70;99.90
53653;DHT22;39553;52.954;5.932;2023-03-14T03:00:18;8.60;99.90
53653;DHT22;39553;52.954;5.932;2023-03-14T03:02:44;8.50;99.90
53653;DHT22;39553;52.954;5.932;2023-03-14T03:05:09;8.60;99.90
53653;DHT22;39553;52.954;5.932;2023-03-14T03:07:35;8.50;99.90
53653;DHT22;39553;52.954;5.932;2023-03-14T03:10:01;8.40;99.90
53653;DHT22;39553;52.954;5.932;2023-03-14T03:12:26;8.40;99.90
53653;DHT22;39553;52.954;5.932;2023-03-14T03:14:52;8.40;99.90
53653;DHT22;39553;52.954;5.932;2023-03-14T03:17:18;8.40;99.90
53653;DHT22;39553;52.954;5.932;2023-03-14T03:19:43;8.40;99.90
53653;DHT22;39553;52.954;5.932;2023-03-14T03:22:09;8.30;99.90
53653;DHT22;39553;52.954;5.932;2023-03-14T03:24:35;8.40;99.90
53653;DHT22;39553;52.954;5.932;2023-03-14T03:27:01;8.30;99.90
53653;DHT22;39553;52.954;5.932;2023-03-14T03:29:26;8.30;99.90
53653;DHT22;39553;52.954;5.932;2023-03-14T03:31:52;8.40;99.90
53653;DHT22;39553;52.954;5.932;2023-03-14T03:34:18;8.40;99.90
53653;DHT22;39553;52.954;5.932;2023-03-14T03:36:44;8.50;99.90
53653;DHT22;39553;52.954;5.932;2023-03-14T03:39:10;8.50;99.90
53653;DHT22;39553;52.954;5.932;2023-03-14T03:41:35;8.50;99.90
53653;DHT22;39553;52.954;5.932;2023-03-14T03:44:01;8.50;99.90
53653;DHT22;39553;52.954;5.932;2023-03-14T03:46:27;8.50;99.90
53653;DHT22;39553;52.954;5.932;2023-03-14T03:48:57;8.50;99.90
53653;DHT22;39553;52.954;5.932;2023-03-14T03:51:24;8.50;99.90
53653;DHT22;39553;52.954;5.932;2023-03-14T03:53:49;8.50;99.90
53653;DHT22;39553;52.954;5.932;2023-03-14T03:56:15;8.50;99.90
53653;DHT22;39553;52.954;5.932;2023-03-14T03:58:41;8.50;99.90
53653;DHT22;39553;52.954;5.932;2023-03-14T04:01:08;8.50;99.90
53653;DHT22;39553;52.954;5.932;2023-03-14T04:03:35;8.60;99.90
53653;DHT22;39553;52.954;5.932;2023-03-14T04:06:07;8.60;99.90
53653;DHT22;39553;52.954;5.932;2023-03-14T04:08:34;8.60;99.90
53653;DHT22;39553;52.954;5.932;2023-03-14T04:11:01;8.50;99.90
53653;DHT22;39553;52.954;5.932;2023-03-14T04:13:27;8.50;99.90
53653;DHT22;39553;52.954;5.932;2023-03-14T04:15:53;8.50;99.90
53653;DHT22;39553;52.954;5.932;2023-03-14T04:18:19;8.40;99.90
53653;DHT22;39553;52.954;5.932;2023-03-14T04:20:45;8.40;99.90
53653;DHT22;39553;52.954;5.932;2023-03-14T04:23:15;8.40;99.90
53653;DHT22;39553;52.954;5.932;2023-03-14T04:25:41;8.40;99.90
53653;DHT22;39553;52.954;5.932;2023-03-14T04:28:07;8.40;99.90
53653;DHT22;39553;52.954;5.932;2023-03-14T04:30:32;8.40;99.90
53653;DHT22;39553;52.954;5.932;2023-03-14T04:32:58;8.40;99.90
53653;DHT22;39553;52.954;5.932;2023-03-14T04:35:24;8.40;99.90
53653;DHT22;39553;52.954;5.932;2023-03-14T04:37:50;8.40;99.90
53653;DHT22;39553;52.954;5.932;2023-03-14T04:40:17;8.50;99.90
53653;DHT22;39553;52.954;5.932;2023-03-14T04:42:43;8.40;99.90
53653;DHT22;39553;52.954;5.932;2023-03-14T04:45:09;8.40;99.90
53653;DHT22;39553;52.954;5.932;2023-03-14T04:47:36;8.30;99.90
53653;DHT22;39553;52.954;5.932;2023-03-14T04:50:02;8.40;99.90
53653;DHT22;39553;52.954;5.932;2023-03-14T04:52:28;8.40;99.90
53653;DHT22;39553;52.954;5.932;2023-03-14T04:54:54;8.40;99.90
53653;DHT22;39553;52.954;5.932;2023-03-14T04:57:19;8.40;99.90
53653;DHT22;39553;52.954;5.932;2023-03-14T04:59:45;8.40;99.90
53653;DHT22;39553;52.954;5.932;2023-03-14T05:02:11;8.30;99.90
53653;DHT22;39553;52.954;5.932;2023-03-14T05:04:37;8.30;99.90
53653;DHT22;39553;52.954;5.932;2023-03-14T05:07:02;8.30;99.90
53653;DHT22;39553;52.954;5.932;2023-03-14T05:09:28;8.40;99.90
53653;DHT22;39553;52.954;5.932;2023-03-14T05:11:54;8.30;99.90
53653;DHT22;39553;52.954;5.932;2023-03-14T05:14:19;8.30;99.90
53653;DHT22;39553;52.954;5.932;2023-03-14T05:16:45;8.20;99.90
53653;DHT22;39553;52.954;5.932;2023-03-14T05:19:11;8.20;99.90
53653;DHT22;39553;52.954;5.932;2023-03-14T05:21:37;8.30;99.90
53653;DHT22;39553;52.954;5.932;2023-03-14T05:24:03;8.30;99.90
53653;DHT22;39553;52.954;5.932;2023-03-14T05:26:29;8.30;99.90
53653;DHT22;39553;52.954;5.932;2023-03-14T05:28:55;8.20;99.90
53653;DHT22;39553;52.954;5.932;2023-03-14T05:31:21;8.30;99.90
53653;DHT22;39553;52.954;5.932;2023-03-14T05:33:46;8.20;99.90
53653;DHT22;39553;52.954;5.932;2023-03-14T05:36:12;8.30;99.90
53653;DHT22;39553;52.954;5.932;2023-03-14T05:38:38;8.20;99.90
53653;DHT22;39553;52.954;5.932;2023-03-14T05:41:04;8.10;99.90
53653;DHT22;39553;52.954;5.932;2023-03-14T05:43:30;8.20;99.90
53653;DHT22;39553;52.954;5.932;2023-03-14T05:45:56;8.10;99.90
53653;DHT22;39553;52.954;5.932;2023-03-14T05:48:21;8.30;99.90
53653;DHT22;39553;52.954;5.932;2023-03-14T05:50:47;8.10;99.90
53653;DHT22;39553;52.954;5.932;2023-03-14T05:53:14;8.30;99.90
53653;DHT22;39553;52.954;5.932;2023-03-14T05:55:40;8.40;99.90
53653;DHT22;39553;52.954;5.932;2023-03-14T05:58:06;8.20;99.90
53653;DHT22;39553;52.954;5.932;2023-03-14T06:00:32;8.30;99.90
53653;DHT22;39553;52.954;5.932;2023-03-14T06:02:57;8.10;99.90
53653;DHT22;39553;52.954;5.932;2023-03-14T06:05:23;8.30;99.90
53653;DHT22;39553;52.954;5.932;2023-03-14T06:07:49;8.30;99.90
53653;DHT22;39553;52.954;5.932;2023-03-14T06:10:15;8.30;99.90
53653;DHT22;39553;52.954;5.932;2023-03-14T06:12:41;8.20;99.90
53653;DHT22;39553;52.954;5.932;2023-03-14T06:15:07;8.30;99.90
53653;DHT22;39553;52.954;5.932;2023-03-14T06:17:33;8.20;99.90
53653;DHT22;39553;52.954;5.932;2023-03-14T06:19:59;8.00;99.90
53653;DHT22;39553;52.954;5.932;2023-03-14T06:22:24;8.10;99.90
53653;DHT22;39553;52.954;5.932;2023-03-14T06:24:50;8.00;99.90
53653;DHT22;39553;52.954;5.932;2023-03-14T06:27:16;7.70;99.90
53653;DHT22;39553;52.954;5.932;2023-03-14T06:29:42;7.60;99.90
53653;DHT22;39553;52.954;5.932;2023-03-14T06:32:07;7.40;99.90
53653;DHT22;39553;52.954;5.932;2023-03-14T06:34:33;7.30;99.90
53653;DHT22;39553;52.954;5.932;2023-03-14T06:36:59;7.20;99.90
53653;DHT22;39553;52.954;5.932;2023-03-14T06:39:24;7.10;99.90
53653;DHT22;39553;52.954;5.932;2023-03-14T06:41:50;6.90;99.90
53653;DHT22;39553;52.954;5.932;2023-03-14T06:44:16;6.90;99.90
53653;DHT22;39553;52.954;5.932;2023-03-14T06:46:42;6.60;99.90
53653;DHT22;39553;52.954;5.932;2023-03-14T06:49:07;6.30;99.90
53653;DHT22;39553;52.954;5.932;2023-03-14T06:51:33;6.00;99.90
53653;DHT22;39553;52.954;5.932;2023-03-14T06:53:59;5.70;99.90
53653;DHT22;39553;52.954;5.932;2023-03-14T06:56:25;5.60;99.90
53653;DHT22;39553;52.954;5.932;2023-03-14T06:58:51;5.40;99.90
53653;DHT22;39553;52.954;5.932;2023-03-14T07:01:25;5.30;99.90
53653;DHT22;39553;52.954;5.932;2023-03-14T07:03:51;5.30;99.90
53653;DHT22;39553;52.954;5.932;2023-03-14T07:06:17;5.00;99.90
53653;DHT22;39553;52.954;5.932;2023-03-14T07:08:43;6.00;99.90
53653;DHT22;39553;52.954;5.932;2023-03-14T07:11:09;4.80;99.90
53653;DHT22;39553;52.954;5.932;2023-03-14T07:13:37;4.90;99.90
53653;DHT22;39553;52.954;5.932;2023-03-14T07:16:03;5.80;99.90
53653;DHT22;39553;52.954;5.932;2023-03-14T07:18:29;4.60;99.90
53653;DHT22;39553;52.954;5.932;2023-03-14T07:20:55;4.40;99.90
53653;DHT22;39553;52.954;5.932;2023-03-14T07:23:20;4.40;99.90
53653;DHT22;39553;52.954;5.932;2023-03-14T07:25:46;4.30;99.90
53653;DHT22;39553;52.954;5.932;2023-03-14T07:28:12;4.30;99.90
53653;DHT22;39553;52.954;5.932;2023-03-14T07:30:37;4.30;99.90
53653;DHT22;39553;52.954;5.932;2023-03-14T07:33:03;4.30;99.90
53653;DHT22;39553;52.954;5.932;2023-03-14T07:35:29;4.20;99.90
53653;DHT22;39553;52.954;5.932;2023-03-14T07:37:54;4.30;99.90
53653;DHT22;39553;52.954;5.932;2023-03-14T07:40:21;4.40;99.90
53653;DHT22;39553;52.954;5.932;2023-03-14T07:42:47;4.30;99.90
53653;DHT22;39553;52.954;5.932;2023-03-14T07:45:13;4.40;99.90
53653;DHT22;39553;52.954;5.932;2023-03-14T07:47:39;4.30;99.90
53653;DHT22;39553;52.954;5.932;2023-03-14T07:50:05;4.30;99.90
53653;DHT22;39553;52.954;5.932;2023-03-14T07:52:31;4.30;99.90
53653;DHT22;39553;52.954;5.932;2023-03-14T07:54:57;4.30;99.90
53653;DHT22;39553;52.954;5.932;2023-03-14T07:57:23;4.50;99.90
53653;DHT22;39553;52.954;5.932;2023-03-14T07:59:49;4.40;99.90
53653;DHT22;39553;52.954;5.932;2023-03-14T08:02:15;4.40;99.90
53653;DHT22;39553;52.954;5.932;2023-03-14T08:04:41;5.20;99.90
53653;DHT22;39553;52.954;5.932;2023-03-14T08:07:07;4.30;99.90
53653;DHT22;39553;52.954;5.932;2023-03-14T08:09:32;4.60;99.90
53653;DHT22;39553;52.954;5.932;2023-03-14T08:11:58;5.50;99.90
53653;DHT22;39553;52.954;5.932;2023-03-14T08:14:24;4.80;99.90
53653;DHT22;39553;52.954;5.932;2023-03-14T08:16:51;4.70;99.90
53653;DHT22;39553;52.954;5.932;2023-03-14T08:19:16;4.80;99.90
53653;DHT22;39553;52.954;5.932;2023-03-14T08:21:42;4.80;99.90
53653;DHT22;39553;52.954;5.932;2023-03-14T08:24:08;4.80;99.90
53653;DHT22;39553;52.954;5.932;2023-03-14T08:26:34;4.80;99.90
53653;DHT22;39553;52.954;5.932;2023-03-14T08:29:00;5.20;99.90
53653;DHT22;39553;52.954;5.932;2023-03-14T08:31:26;4.90;99.90
53653;DHT22;39553;52.954;5.932;2023-03-14T08:33:52;5.00;99.90
53653;DHT22;39553;52.954;5.932;2023-03-14T08:36:19;5.00;99.90
53653;DHT22;39553;52.954;5.932;2023-03-14T08:38:45;5.00;99.90
53653;DHT22;39553;52.954;5.932;2023-03-14T08:41:11;4.90;99.90
53653;DHT22;39553;52.954;5.932;2023-03-14T08:43:37;5.10;99.90
53653;DHT22;39553;52.954;5.932;2023-03-14T08:46:03;5.10;99.90
53653;DHT22;39553;52.954;5.932;2023-03-14T08:48:30;5.30;99.90
53653;DHT22;39553;52.954;5.932;2023-03-14T08:50:56;5.30;99.90
53653;DHT22;39553;52.954;5.932;2023-03-14T08:53:22;5.40;99.90
53653;DHT22;39553;52.954;5.932;2023-03-14T08:55:53;5.50;99.90
53653;DHT22;39553;52.954;5.932;2023-03-14T08:58:19;5.80;99.90
53653;DHT22;39553;52.954;5.932;2023-03-14T09:00:44;6.00;99.90
53653;DHT22;39553;52.954;5.932;2023-03-14T09:03:10;6.20;99.90
53653;DHT22;39553;52.954;5.932;2023-03-14T09:05:36;6.00;99.90
53653;DHT22;39553;52.954;5.932;2023-03-14T09:08:02;5.80;99.90
53653;DHT22;39553;52.954;5.932;2023-03-14T09:10:28;5.70;99.90
53653;DHT22;39553;52.954;5.932;2023-03-14T09:12:53;6.30;99.90
53653;DHT22;39553;52.954;5.932;2023-03-14T09:15:19;5.40;99.90
53653;DHT22;39553;52.954;5.932;2023-03-14T09:17:45;5.40;99.90
53653;DHT22;39553;52.954;5.932;2023-03-14T09:20:10;6.10;99.90
53653;DHT22;39553;52.954;5.932;2023-03-14T09:22:36;5.40;99.90
53653;DHT22;39553;52.954;5.932;2023-03-14T09:25:06;5.40;99.90
53653;DHT22;39553;52.954;5.932;2023-03-14T09:27:32;5.20;99.90
53653;DHT22;39553;52.954;5.932;2023-03-14T09:29:57;5.00;99.90
53653;DHT22;39553;52.954;5.932;2023-03-14T09:32:23;4.90;99.90
53653;DHT22;39553;52.954;5.932;2023-03-14T09:34:49;5.00;99.90
53653;DHT22;39553;52.954;5.932;2023-03-14T09:37:14;5.10;99.90
53653;DHT22;39553;52.954;5.932;2023-03-14T09:39:42;5.10;99.90
53653;DHT22;39553;52.954;5.932;2023-03-14T09:42:13;5.00;99.90
53653;DHT22;39553;52.954;5.932;2023-03-14T09:45:06;5.10;99.90
53653;DHT22;39553;52.954;5.932;2023-03-14T09:47:31;5.10;99.90
53653;DHT22;39553;52.954;5.932;2023-03-14T09:50:00;5.10;99.90
53653;DHT22;39553;52.954;5.932;2023-03-14T09:52:36;5.10;99.90
53653;DHT22;39553;52.954;5.932;2023-03-14T09:55:17;4.90;99.90
53653;DHT22;39553;52.954;5.932;2023-03-14T09:57:45;4.90;99.90
53653;DHT22;39553;52.954;5.932;2023-03-14T10:00:23;5.60;99.90
53653;DHT22;39553;52.954;5.932;2023-03-14T10:03:21;5.00;99.90
53653;DHT22;39553;52.954;5.932;2023-03-14T10:05:48;5.00;99.90
53653;DHT22;39553;52.954;5.932;2023-03-14T10:08:14;5.20;99.90
53653;DHT22;39553;52.954;5.932;2023-03-14T10:10:40;5.20;99.90
53653;DHT22;39553;52.954;5.932;2023-03-14T10:13:21;5.30;99.90
53653;DHT22;39553;52.954;5.932;2023-03-14T10:16:04;5.40;99.90
53653;DHT22;39553;52.954;5.932;2023-03-14T10:18:33;5.60;99.90
53653;DHT22;39553;52.954;5.932;2023-03-14T10:21:06;5.70;99.90
53653;DHT22;39553;52.954;5.932;2023-03-14T10:23:42;5.70;99.90
53653;DHT22;39553;52.954;5.932;2023-03-14T10:26:13;5.60;99.90
53653;DHT22;39553;52.954;5.932;2023-03-14T10:28:48;5.60;99.90
53653;DHT22;39553;52.954;5.932;2023-03-14T10:31:16;5.80;99.90
53653;DHT22;39553;52.954;5.932;2023-03-14T10:33:43;5.90;99.90
53653;DHT22;39553;52.954;5.932;2023-03-14T10:36:24;6.10;99.90
53653;DHT22;39553;52.954;5.932;2023-03-14T10:38:57;6.10;99.90
53653;DHT22;39553;52.954;5.932;2023-03-14T10:41:25;6.20;99.90
53653;DHT22;39553;52.954;5.932;2023-03-14T10:43:54;6.50;99.90
53653;DHT22;39553;52.954;5.932;2023-03-14T10:46:24;7.20;99.90
53653;DHT22;39553;52.954;5.932;2023-03-14T10:48:51;7.30;99.90
53653;DHT22;39553;52.954;5.932;2023-03-14T10:51:30;7.30;99.90
53653;DHT22;39553;52.954;5.932;2023-03-14T10:56:37;8.20;99.90
53653;DHT22;39553;52.954;5.932;2023-03-14T10:59:06;8.30;99.90
53653;DHT22;39553;52.954;5.932;2023-03-14T11:01:42;8.40;99.90
53653;DHT22;39553;52.954;5.932;2023-03-14T11:07:20;8.20;99.90
53653;DHT22;39553;52.954;5.932;2023-03-14T11:10:07;8.50;99.90
53653;DHT22;39553;52.954;5.932;2023-03-14T11:12:45;8.40;99.90
53653;DHT22;39553;52.954;5.932;2023-03-14T11:21:08;7.80;99.90
53653;DHT22;39553;52.954;5.932;2023-03-14T11:23:55;8.50;99.90
53653;DHT22;39553;52.954;5.932;2023-03-14T11:29:20;8.60;98.00
53653;DHT22;39553;52.954;5.932;2023-03-14T11:31:47;8.20;95.90
53653;DHT22;39553;52.954;5.932;2023-03-14T11:34:25;7.90;98.40
53653;DHT22;39553;52.954;5.932;2023-03-14T11:37:25;7.70;99.10
53653;DHT22;39553;52.954;5.932;2023-03-14T11:42:36;8.00;95.20
53653;DHT22;39553;52.954;5.932;2023-03-14T11:45:03;8.10;98.30
53653;DHT22;39553;52.954;5.932;2023-03-14T11:47:39;8.30;98.50
53653;DHT22;39553;52.954;5.932;2023-03-14T11:50:32;8.50;95.90
53653;DHT22;39553;52.954;5.932;2023-03-14T11:55:35;8.20;94.50
53653;DHT22;39553;52.954;5.932;2023-03-14T11:58:17;8.00;96.40
53653;DHT22;39553;52.954;5.932;2023-03-14T12:00:47;8.20;95.20
53653;DHT22;39553;52.954;5.932;2023-03-14T12:06:32;9.30;94.80
53653;DHT22;39553;52.954;5.932;2023-03-14T12:09:03;9.30;93.40
53653;DHT22;39553;52.954;5.932;2023-03-14T12:11:48;9.10;96.20
53653;DHT22;39553;52.954;5.932;2023-03-14T12:14:35;8.70;96.00
53653;DHT22;39553;52.954;5.932;2023-03-14T12:19:44;8.40;94.70
53653;DHT22;39553;52.954;5.932;2023-03-14T12:22:23;8.30;97.30
53653;DHT22;39553;52.954;5.932;2023-03-14T12:27:43;8.40;94.60
53653;DHT22;39553;52.954;5.932;2023-03-14T12:30:28;8.60;97.90
53653;DHT22;39553;52.954;5.932;2023-03-14T12:35:46;8.10;95.20
53653;DHT22;39553;52.954;5.932;2023-03-14T12:41:26;8.50;93.60
53653;DHT22;39553;52.954;5.932;2023-03-14T12:43:53;8.90;94.00
53653;DHT22;39553;52.954;5.932;2023-03-14T12:46:20;9.20;93.10
53653;DHT22;39553;52.954;5.932;2023-03-14T12:48:54;9.10;90.10
53653;DHT22;39553;52.954;5.932;2023-03-14T12:51:37;9.10;86.90
53653;DHT22;39553;52.954;5.932;2023-03-14T13:01:35;8.80;84.80
53653;DHT22;39553;52.954;5.932;2023-03-14T13:04:10;8.70;91.30
53653;DHT22;39553;52.954;5.932;2023-03-14T13:06:56;8.70;90.30
53653;DHT22;39553;52.954;5.932;2023-03-14T13:09:34;8.50;91.40
53653;DHT22;39553;52.954;5.932;2023-03-14T13:12:11;8.60;94.30
53653;DHT22;39553;52.954;5.932;2023-03-14T13:14:45;8.90;90.60
53653;DHT22;39553;52.954;5.932;2023-03-14T13:17:12;9.00;91.70
53653;DHT22;39553;52.954;5.932;2023-03-14T13:19:38;8.80;87.00
53653;DHT22;39553;52.954;5.932;2023-03-14T13:22:12;8.50;86.20
53653;DHT22;39553;52.954;5.932;2023-03-14T13:24:40;8.60;90.00
53653;DHT22;39553;52.954;5.932;2023-03-14T13:27:18;8.80;89.60
53653;DHT22;39553;52.954;5.932;2023-03-14T13:29:48;8.90;90.50
53653;DHT22;39553;52.954;5.932;2023-03-14T13:32:26;8.70;92.60
53653;DHT22;39553;52.954;5.932;2023-03-14T13:34:59;8.30;92.20
53653;DHT22;39553;52.954;5.932;2023-03-14T13:37:26;8.30;92.10
53653;DHT22;39553;52.954;5.932;2023-03-14T13:39:54;8.50;92.10
53653;DHT22;39553;52.954;5.932;2023-03-14T13:42:28;8.80;94.20
53653;DHT22;39553;52.954;5.932;2023-03-14T13:44:56;9.20;90.60
53653;DHT22;39553;52.954;5.932;2023-03-14T13:47:24;9.00;86.90
53653;DHT22;39553;52.954;5.932;2023-03-14T13:49:51;8.70;84.30
53653;DHT22;39553;52.954;5.932;2023-03-14T13:54:47;8.00;90.90
53653;DHT22;39553;52.954;5.932;2023-03-14T13:57:13;7.90;91.60
53653;DHT22;39553;52.954;5.932;2023-03-14T13:59:39;8.10;90.00
53653;DHT22;39553;52.954;5.932;2023-03-14T14:02:12;8.00;86.90
53653;DHT22;39553;52.954;5.932;2023-03-14T14:04:38;8.10;85.00
53653;DHT22;39553;52.954;5.932;2023-03-14T14:07:14;8.00;90.60
53653;DHT22;39553;52.954;5.932;2023-03-14T14:09:43;8.40;90.30
53653;DHT22;39553;52.954;5.932;2023-03-14T14:12:33;8.40;81.90
53653;DHT22;39553;52.954;5.932;2023-03-14T14:15:21;8.20;84.60
53653;DHT22;39553;52.954;5.932;2023-03-14T14:17:52;8.00;85.80
53653;DHT22;39553;52.954;5.932;2023-03-14T14:22:50;7.40;90.90
53653;DHT22;39553;52.954;5.932;2023-03-14T14:25:16;7.30;90.70
53653;DHT22;39553;52.954;5.932;2023-03-14T14:27:46;7.10;89.90
53653;DHT22;39553;52.954;5.932;2023-03-14T14:32:49;6.90;91.20
53653;DHT22;39553;52.954;5.932;2023-03-14T14:35:33;6.90;91.60
53653;DHT22;39553;52.954;5.932;2023-03-14T14:37:59;7.00;91.30
53653;DHT22;39553;52.954;5.932;2023-03-14T14:40:27;6.90;92.10
53653;DHT22;39553;52.954;5.932;2023-03-14T14:42:54;6.90;92.00
53653;DHT22;39553;52.954;5.932;2023-03-14T14:45:24;6.90;92.60
53653;DHT22;39553;52.954;5.932;2023-03-14T14:48:04;6.90;92.80
53653;DHT22;39553;52.954;5.932;2023-03-14T14:50:48;6.80;92.30
53653;DHT22;39553;52.954;5.932;2023-03-14T14:53:36;6.80;94.20
53653;DHT22;39553;52.954;5.932;2023-03-14T14:56:20;6.80;95.90
53653;DHT22;39553;52.954;5.932;2023-03-14T14:58:50;6.70;97.50
53653;DHT22;39553;52.954;5.932;2023-03-14T15:01:22;6.50;98.20
53653;DHT22;39553;52.954;5.932;2023-03-14T15:03:52;6.40;98.30
53653;DHT22;39553;52.954;5.932;2023-03-14T15:06:19;6.40;98.80
53653;DHT22;39553;52.954;5.932;2023-03-14T15:08:47;6.30;99.10
53653;DHT22;39553;52.954;5.932;2023-03-14T15:11:22;6.30;99.20
53653;DHT22;39553;52.954;5.932;2023-03-14T15:13:50;6.30;99.50
53653;DHT22;39553;52.954;5.932;2023-03-14T15:16:22;6.30;99.60
53653;DHT22;39553;52.954;5.932;2023-03-14T15:18:54;6.40;99.70
53653;DHT22;39553;52.954;5.932;2023-03-14T15:21:21;6.60;99.80
53653;DHT22;39553;52.954;5.932;2023-03-14T15:23:47;6.80;98.60
53653;DHT22;39553;52.954;5.932;2023-03-14T15:26:16;7.00;95.80
53653;DHT22;39553;52.954;5.932;2023-03-14T15:28:42;7.00;92.30
53653;DHT22;39553;52.954;5.932;2023-03-14T15:31:10;7.00;91.30
53653;DHT22;39553;52.954;5.932;2023-03-14T15:33:37;7.00;92.30
53653;DHT22;39553;52.954;5.932;2023-03-14T15:36:04;7.30;91.50
53653;DHT22;39553;52.954;5.932;2023-03-14T15:38:30;7.30;92.90
53653;DHT22;39553;52.954;5.932;2023-03-14T15:40:56;7.30;92.60
53653;DHT22;39553;52.954;5.932;2023-03-14T15:43:21;7.30;92.30
53653;DHT22;39553;52.954;5.932;2023-03-14T15:45:47;7.30;92.20
53653;DHT22;39553;52.954;5.932;2023-03-14T15:48:18;7.10;93.30
53653;DHT22;39553;52.954;5.932;2023-03-14T15:50:45;7.10;94.40
53653;DHT22;39553;52.954;5.932;2023-03-14T15:53:11;7.20;96.30
53653;DHT22;39553;52.954;5.932;2023-03-14T15:55:37;6.80;98.60
53653;DHT22;39553;52.954;5.932;2023-03-14T15:58:03;6.70;99.90
53653;DHT22;39553;52.954;5.932;2023-03-14T16:00:29;6.40;99.90
53653;DHT22;39553;52.954;5.932;2023-03-14T16:02:55;6.20;99.90
53653;DHT22;39553;52.954;5.932;2023-03-14T16:05:22;6.10;99.90
53653;DHT22;39553;52.954;5.932;2023-03-14T16:07:47;6.10;99.90
53653;DHT22;39553;52.954;5.932;2023-03-14T16:10:15;6.10;99.90
53653;DHT22;39553;52.954;5.932;2023-03-14T16:12:41;6.10;98.20
53653;DHT22;39553;52.954;5.932;2023-03-14T16:15:08;6.40;95.00
53653;DHT22;39553;52.954;5.932;2023-03-14T16:17:34;6.70;95.80
53653;DHT22;39553;52.954;5.932;2023-03-14T16:20:00;7.10;94.90
53653;DHT22;39553;52.954;5.932;2023-03-14T16:22:26;7.30;91.60
53653;DHT22;39553;52.954;5.932;2023-03-14T16:24:52;7.30;92.60
53653;DHT22;39553;52.954;5.932;2023-03-14T16:27:18;7.20;93.90
53653;DHT22;39553;52.954;5.932;2023-03-14T16:29:43;7.10;94.20
53653;DHT22;39553;52.954;5.932;2023-03-14T16:32:10;7.20;94.40
53653;DHT22;39553;52.954;5.932;2023-03-14T16:34:39;7.30;94.90
53653;DHT22;39553;52.954;5.932;2023-03-14T16:37:05;7.20;94.30
53653;DHT22;39553;52.954;5.932;2023-03-14T16:39:31;6.80;92.90
53653;DHT22;39553;52.954;5.932;2023-03-14T16:41:58;6.50;94.70
53653;DHT22;39553;52.954;5.932;2023-03-14T16:44:24;6.60;95.60
53653;DHT22;39553;52.954;5.932;2023-03-14T16:46:50;6.20;96.90
53653;DHT22;39553;52.954;5.932;2023-03-14T16:49:16;6.10;96.80